Time;durP1;ratioP1;P1;durP2;ratioP2;P2;SDS_P1;SDS_P2;PMS_P1;PMS_P2;Temp;Humidity;BMP_temperature;BMP_pressure;BME280_temperature;BME280_humidity;BME280_pressure;Samples;Min_cycle;Max_cycle;Signal;HPM_P1;HPM_P2
2023/10/14 06:41:01;;;;;;;;;3.67;2.00;;;;;;;;6215747;22;46166;-74
2023/10/14 06:43:27;;;;;;;;;2.00;2.00;;;;;;;;6303001;22;45337;-74
2023/10/14 06:45:52;;;;;;;;;4.67;3.00;;;;;;;;6278174;22;45651;-74
2023/10/14 06:48:18;;;;;;;;;3.00;3.00;;;;;;;;6306100;22;45361;-73
2023/10/14 06:50:47;;;;;;;;;5.33;3.67;;;;;;;;6306285;22;46267;-74
2023/10/14 06:53:14;;;;;;;;;4.00;2.00;;;;;;;;6306170;22;45360;-74
2023/10/14 06:55:40;;;;;;;;;3.00;3.00;;;;;;;;6277679;22;45357;-74
2023/10/14 06:58:12;;;;;;;;;4.00;3.00;;;;;;;;6277896;22;45570;-74
2023/10/14 07:00:40;;;;;;;;;6.33;3.00;;;;;;;;6306006;22;46478;-74
2023/10/14 07:03:15;;;;;;;;;4.67;3.00;;;;;;;;6305931;22;45512;-74
2023/10/14 07:05:48;;;;;;;;;5.00;3.00;;;;;;;;6277767;22;45323;-74
2023/10/14 07:08:14;;;;;;;;;3.33;2.00;;;;;;;;6306455;22;45524;-73
2023/10/14 07:10:39;;;;;;;;;2.33;2.33;;;;;;;;6305590;22;45655;-74
2023/10/14 07:13:04;;;;;;;;;3.00;3.00;;;;;;;;6277454;22;45441;-74
2023/10/14 07:15:31;;;;;;;;;3.67;2.00;;;;;;;;6306057;22;45324;-74
2023/10/14 07:17:56;;;;;;;;;4.00;2.67;;;;;;;;6306182;22;45262;-74
2023/10/14 07:20:22;;;;;;;;;3.00;3.00;;;;;;;;6306174;22;45781;-74
2023/10/14 07:22:49;;;;;;;;;4.00;2.00;;;;;;;;6304869;22;45355;-73
2023/10/14 07:25:15;;;;;;;;;8.67;3.67;;;;;;;;6278267;22;45324;-74
2023/10/14 07:27:40;;;;;;;;;6.67;2.33;;;;;;;;6305382;22;45711;-74
2023/10/14 07:30:15;;;;;;;;;2.00;1.33;;;;;;;;6307221;22;45652;-76
2023/10/14 07:32:42;;;;;;;;;2.67;2.00;;;;;;;;6306571;22;45293;-73
2023/10/14 07:35:11;;;;;;;;;3.33;2.00;;;;;;;;6306758;22;45257;-73
2023/10/14 07:37:36;;;;;;;;;2.00;2.00;;;;;;;;6306988;22;45270;-74
2023/10/14 07:40:04;;;;;;;;;3.00;2.33;;;;;;;;6308313;22;45376;-73
2023/10/14 07:42:30;;;;;;;;;7.25;5.25;;;;;;;;6325997;22;45201;-75
2023/10/14 07:44:55;;;;;;;;;5.00;4.00;;;;;;;;6339845;22;45215;-75
2023/10/14 07:47:21;;;;;;;;;2.00;2.00;;;;;;;;6339303;22;45331;-74
2023/10/14 07:49:46;;;;;;;;;3.33;2.00;;;;;;;;6339405;22;45428;-75
2023/10/14 07:52:14;;;;;;;;;3.33;1.67;;;;;;;;6338417;22;45311;-75
2023/10/14 07:54:42;;;;;;;;;3.67;2.67;;;;;;;;6340075;22;45342;-75
2023/10/14 07:57:11;;;;;;;;;3.00;3.00;;;;;;;;6340399;22;45256;-74
2023/10/14 07:59:37;;;;;;;;;2.00;2.00;;;;;;;;6340023;22;45612;-75
2023/10/14 08:02:03;;;;;;;;;2.67;1.00;;;;;;;;6341311;22;45276;-76
2023/10/14 08:04:28;;;;;;;;;5.00;3.00;;;;;;;;6341784;22;45240;-77
2023/10/14 08:06:53;;;;;;;;;2.00;1.00;;;;;;;;6313506;22;45524;-77
2023/10/14 08:09:25;;;;;;;;;6.33;3.67;;;;;;;;6342296;22;46473;-79
2023/10/14 08:11:51;;;;;;;;;5.00;2.67;;;;;;;;6341218;22;45447;-78
2023/10/14 08:14:16;;;;;;;;;3.00;3.00;;;;;;;;6341550;22;44755;-75
2023/10/14 08:16:41;;;;;;;;;4.00;3.00;;;;;;;;6341884;22;47143;-75
2023/10/14 08:19:10;;;;;;;;;3.00;3.00;;;;;;;;6341655;22;45987;-76
2023/10/14 08:21:36;;;;;;;;;5.00;3.00;;;;;;;;6340726;22;45246;-76
2023/10/14 08:24:01;;;;;;;;;4.00;4.00;;;;;;;;6341425;22;45266;-75
2023/10/14 08:26:27;;;;;;;;;2.67;1.33;;;;;;;;6312351;22;45364;-75
2023/10/14 08:28:59;;;;;;;;;1.67;1.67;;;;;;;;6341166;22;45575;-75
2023/10/14 08:31:25;;;;;;;;;2.00;2.00;;;;;;;;6341313;22;45243;-76
2023/10/14 08:33:50;;;;;;;;;4.00;1.00;;;;;;;;6341596;22;45206;-76
2023/10/14 08:36:15;;;;;;;;;1.00;1.00;;;;;;;;6341050;22;45305;-76
2023/10/14 08:38:42;;;;;;;;;1.00;1.00;;;;;;;;6340966;22;45638;-76
2023/10/14 08:41:08;;;;;;;;;3.00;2.00;;;;;;;;6340440;22;45214;-76
2023/10/14 08:43:36;;;;;;;;;1.00;1.00;;;;;;;;6341406;22;45289;-76
2023/10/14 08:46:03;;;;;;;;;2.33;1.00;;;;;;;;6311762;22;45620;-76
2023/10/14 08:48:29;;;;;;;;;1.67;1.67;;;;;;;;6340800;22;45334;-76
2023/10/14 08:50:56;;;;;;;;;1.00;1.00;;;;;;;;6312294;22;45601;-75
2023/10/14 08:53:22;;;;;;;;;7.00;4.00;;;;;;;;6312830;22;45220;-75
2023/10/14 08:55:48;;;;;;;;;1.33;1.00;;;;;;;;6340671;22;45172;-76
2023/10/14 08:58:16;;;;;;;;;2.00;2.00;;;;;;;;6341205;22;45393;-76
2023/10/14 09:00:42;;;;;;;;;1.33;0.00;;;;;;;;6340735;22;45382;-76
2023/10/14 09:03:09;;;;;;;;;1.00;1.00;;;;;;;;6341277;22;45295;-75
2023/10/14 09:05:38;;;;;;;;;2.33;2.00;;;;;;;;6340705;22;45220;-76
2023/10/14 09:08:04;;;;;;;;;1.67;0.67;;;;;;;;6340491;22;46087;-76
2023/10/14 09:10:29;;;;;;;;;3.00;1.00;;;;;;;;6340565;22;45246;-77
2023/10/14 09:12:58;;;;;;;;;1.33;0.67;;;;;;;;6340996;22;45214;-76
2023/10/14 09:15:27;;;;;;;;;1.00;1.00;;;;;;;;6341015;22;45512;-75
2023/10/14 09:17:55;;;;;;;;;1.00;1.00;;;;;;;;6312781;22;46066;-75
2023/10/14 09:20:37;;;;;;;;;4.00;2.00;;;;;;;;6340566;22;45152;-74
2023/10/14 09:23:14;;;;;;;;;1.00;1.00;;;;;;;;6341236;22;45159;-75
2023/10/14 09:25:40;;;;;;;;;2.00;2.00;;;;;;;;6340379;22;45206;-76
2023/10/14 09:28:06;;;;;;;;;3.00;2.00;;;;;;;;6312569;22;47460;-76
2023/10/14 09:30:32;;;;;;;;;3.00;2.00;;;;;;;;6340518;22;45314;-75
2023/10/14 09:32:57;;;;;;;;;1.00;1.00;;;;;;;;6341227;22;45262;-76
2023/10/14 09:35:29;;;;;;;;;1.33;1.00;;;;;;;;6340426;22;45273;-75
2023/10/14 09:37:54;;;;;;;;;2.00;0.00;;;;;;;;6312395;22;48036;-76
2023/10/14 09:40:20;;;;;;;;;1.00;1.00;;;;;;;;6340823;22;45347;-76
2023/10/14 09:42:45;;;;;;;;;2.67;1.00;;;;;;;;6340990;22;45118;-75
2023/10/14 09:45:11;;;;;;;;;1.33;1.33;;;;;;;;6341996;22;45300;-75
2023/10/14 09:47:37;;;;;;;;;3.67;1.00;;;;;;;;6340954;22;45254;-76
2023/10/14 09:50:05;;;;;;;;;2.00;1.00;;;;;;;;6312602;22;45339;-75
2023/10/14 09:52:31;;;;;;;;;1.67;0.33;;;;;;;;6341079;22;45226;-76
2023/10/14 09:54:57;;;;;;;;;2.33;2.33;;;;;;;;6340503;22;45177;-77
2023/10/14 09:57:25;;;;;;;;;3.67;1.00;;;;;;;;6340516;22;45376;-75
2023/10/14 09:59:52;;;;;;;;;2.33;1.33;;;;;;;;6340347;22;45230;-75
2023/10/14 10:02:18;;;;;;;;;1.00;0.00;;;;;;;;6340814;22;45188;-75
2023/10/14 10:04:45;;;;;;;;;3.00;1.00;;;;;;;;6341110;22;45385;-74
2023/10/14 10:07:15;;;;;;;;;4.67;1.67;;;;;;;;6340551;22;45564;-75
2023/10/14 10:10:01;;;;;;;;;0.67;0.67;;;;;;;;6340949;22;45199;-75
2023/10/14 10:12:28;;;;;;;;;3.33;0.67;;;;;;;;6340362;22;45294;-75
2023/10/14 10:14:57;;;;;;;;;2.00;1.33;;;;;;;;6312329;22;46029;-75
2023/10/14 10:17:24;;;;;;;;;2.67;0.67;;;;;;;;6340346;22;45335;-75
2023/10/14 10:20:09;;;;;;;;;2.67;2.00;;;;;;;;6341049;22;45074;-75
2023/10/14 10:22:39;;;;;;;;;3.00;2.00;;;;;;;;6340525;22;45216;-75
2023/10/14 10:25:05;;;;;;;;;1.00;1.00;;;;;;;;6340385;22;45389;-76
2023/10/14 10:27:30;;;;;;;;;2.00;2.00;;;;;;;;6339583;22;46513;-75
2023/10/14 10:29:55;;;;;;;;;2.33;1.00;;;;;;;;6340853;22;45296;-74
2023/10/14 10:32:21;;;;;;;;;2.67;1.33;;;;;;;;6340850;22;45216;-75
2023/10/14 10:35:05;;;;;;;;;1.00;1.00;;;;;;;;6311962;22;45981;-75
2023/10/14 10:37:37;;;;;;;;;1.33;0.33;;;;;;;;6340452;22;45286;-75
2023/10/14 10:40:05;;;;;;;;;2.33;2.00;;;;;;;;6340293;22;45297;-75
2023/10/14 10:42:31;;;;;;;;;1.67;1.67;;;;;;;;6310515;22;45310;-76
2023/10/14 10:44:57;;;;;;;;;11.00;7.00;;;;;;;;6340525;22;45358;-75
2023/10/14 10:47:23;;;;;;;;;2.67;2.33;;;;;;;;6340369;22;45163;-75
2023/10/14 10:49:48;;;;;;;;;1.33;1.33;;;;;;;;6340346;22;45165;-74
2023/10/14 10:52:14;;;;;;;;;4.67;2.00;;;;;;;;6341031;22;45263;-74
2023/10/14 10:54:42;;;;;;;;;1.00;0.67;;;;;;;;6340788;22;45204;-75
2023/10/14 10:57:07;;;;;;;;;2.33;1.67;;;;;;;;6339779;22;46373;-74
2023/10/14 10:59:33;;;;;;;;;1.67;0.00;;;;;;;;6311045;22;45228;-75
2023/10/14 11:01:58;;;;;;;;;4.00;1.67;;;;;;;;6340398;22;45250;-74
2023/10/14 11:04:23;;;;;;;;;0.33;0.00;;;;;;;;6312160;22;45800;-75
2023/10/14 11:06:51;;;;;;;;;1.00;0.67;;;;;;;;6340253;22;46366;-76
2023/10/14 11:09:16;;;;;;;;;0.67;0.67;;;;;;;;6339793;22;45224;-75
2023/10/14 11:11:42;;;;;;;;;0.67;0.00;;;;;;;;6311929;22;45542;-76
2023/10/14 11:14:19;;;;;;;;;2.00;0.00;;;;;;;;6341277;22;45364;-75
2023/10/14 11:16:44;;;;;;;;;2.00;0.67;;;;;;;;6342435;22;45297;-76
2023/10/14 11:19:10;;;;;;;;;1.00;0.67;;;;;;;;6341729;22;45272;-75
2023/10/14 11:21:37;;;;;;;;;2.33;1.00;;;;;;;;6312075;22;45156;-75
2023/10/14 11:24:04;;;;;;;;;2.33;1.00;;;;;;;;6340620;22;45337;-76
2023/10/14 11:26:29;;;;;;;;;0.33;0.00;;;;;;;;6340031;22;45425;-75
2023/10/14 11:28:54;;;;;;;;;1.67;0.67;;;;;;;;6341275;22;45242;-76
2023/10/14 11:31:20;;;;;;;;;1.67;1.00;;;;;;;;6340686;22;45416;-73
2023/10/14 11:33:46;;;;;;;;;4.00;1.00;;;;;;;;6312031;22;46700;-74
2023/10/14 11:36:17;;;;;;;;;3.33;1.33;;;;;;;;6340561;22;46073;-74
2023/10/14 11:38:43;;;;;;;;;0.67;0.67;;;;;;;;6340308;22;45304;-74
2023/10/14 11:41:10;;;;;;;;;2.00;1.00;;;;;;;;6311030;22;45301;-75
2023/10/14 11:43:35;;;;;;;;;2.67;1.00;;;;;;;;6313221;22;45517;-73
2023/10/14 11:46:00;;;;;;;;;1.00;1.00;;;;;;;;6340617;22;45348;-74
2023/10/14 11:48:26;;;;;;;;;2.67;1.33;;;;;;;;6340914;22;45383;-74
2023/10/14 11:51:02;;;;;;;;;1.33;1.33;;;;;;;;6340910;22;45128;-76
2023/10/14 11:53:28;;;;;;;;;2.00;1.00;;;;;;;;6341013;22;45404;-73
2023/10/14 11:55:58;;;;;;;;;2.00;2.00;;;;;;;;6340244;22;45235;-76
2023/10/14 11:58:24;;;;;;;;;1.33;1.33;;;;;;;;6340546;22;45433;-73
2023/10/14 12:00:49;;;;;;;;;1.00;1.00;;;;;;;;6310773;22;45196;-73
2023/10/14 12:03:14;;;;;;;;;6.00;2.00;;;;;;;;6340808;22;45364;-73
2023/10/14 12:05:40;;;;;;;;;4.00;2.33;;;;;;;;6311955;22;46258;-74
2023/10/14 12:08:08;;;;;;;;;2.00;1.67;;;;;;;;6340745;22;45160;-74
2023/10/14 12:10:33;;;;;;;;;3.00;1.33;;;;;;;;6338402;22;45168;-75
2023/10/14 12:12:59;;;;;;;;;2.67;1.67;;;;;;;;6337918;22;45243;-74
2023/10/14 12:15:24;;;;;;;;;2.00;2.00;;;;;;;;6308988;22;47879;-73
2023/10/14 12:17:50;;;;;;;;;2.00;1.67;;;;;;;;6337674;22;45583;-74
2023/10/14 12:20:15;;;;;;;;;4.00;2.00;;;;;;;;6309060;22;45361;-74
2023/10/14 12:22:41;;;;;;;;;3.00;2.00;;;;;;;;6338251;22;45293;-73
2023/10/14 12:25:07;;;;;;;;;2.00;1.67;;;;;;;;6340294;22;45309;-74
2023/10/14 12:27:33;;;;;;;;;2.67;0.67;;;;;;;;6339844;22;45303;-73
2023/10/14 12:30:00;;;;;;;;;2.67;2.67;;;;;;;;6341235;22;45265;-74
2023/10/14 12:32:26;;;;;;;;;2.33;1.67;;;;;;;;6339887;22;45325;-74
2023/10/14 12:34:52;;;;;;;;;1.67;1.67;;;;;;;;6312320;22;47478;-74
2023/10/14 12:37:18;;;;;;;;;2.67;1.33;;;;;;;;6339546;22;45152;-73
2023/10/14 12:40:11;;;;;;;;;3.00;1.33;;;;;;;;6339422;22;45225;-73
2023/10/14 12:42:45;;;;;;;;;0.33;0.00;;;;;;;;6310537;22;45299;-74
2023/10/14 12:45:14;;;;;;;;;3.00;1.00;;;;;;;;6311324;22;47076;-73
2023/10/14 12:47:45;;;;;;;;;1.00;1.00;;;;;;;;6342054;22;45182;-73
2023/10/14 12:50:11;;;;;;;;;0.00;0.00;;;;;;;;6340310;22;45275;-75
2023/10/14 12:52:38;;;;;;;;;1.67;0.33;;;;;;;;6339969;22;45254;-73
2023/10/14 12:55:14;;;;;;;;;1.33;0.67;;;;;;;;6311745;22;46954;-73
2023/10/14 12:57:39;;;;;;;;;0.67;0.00;;;;;;;;6339778;22;45259;-73
2023/10/14 13:00:10;;;;;;;;;2.00;1.00;;;;;;;;6340596;22;45220;-74
2023/10/14 13:02:39;;;;;;;;;2.00;1.33;;;;;;;;6340034;22;45345;-74
2023/10/14 13:05:05;;;;;;;;;0.67;0.67;;;;;;;;6311845;22;45255;-73
2023/10/14 13:07:30;;;;;;;;;1.33;1.00;;;;;;;;6340307;22;45482;-74
2023/10/14 13:09:55;;;;;;;;;1.00;1.00;;;;;;;;6340908;22;45408;-73
2023/10/14 13:12:20;;;;;;;;;3.33;0.00;;;;;;;;6339554;22;45203;-74
2023/10/14 13:14:46;;;;;;;;;2.33;0.67;;;;;;;;6340730;22;45625;-73
2023/10/14 13:17:11;;;;;;;;;0.67;0.67;;;;;;;;6339733;22;45083;-74
2023/10/14 13:19:36;;;;;;;;;0.67;0.67;;;;;;;;6340812;22;45325;-73
2023/10/14 13:22:13;;;;;;;;;2.67;0.67;;;;;;;;6339965;22;45299;-74
2023/10/14 13:24:38;;;;;;;;;1.67;1.67;;;;;;;;6339568;22;45286;-73
2023/10/14 13:27:04;;;;;;;;;1.67;0.67;;;;;;;;6339327;22;45290;-73
2023/10/14 13:29:29;;;;;;;;;3.00;2.00;;;;;;;;6312302;22;45104;-73
2023/10/14 13:31:54;;;;;;;;;1.33;0.33;;;;;;;;6339788;22;45407;-73
2023/10/14 13:34:19;;;;;;;;;1.67;1.67;;;;;;;;6339739;22;46447;-73
2023/10/14 13:36:44;;;;;;;;;0.67;0.67;;;;;;;;6339786;22;45289;-73
2023/10/14 13:39:15;;;;;;;;;0.67;0.67;;;;;;;;6312181;22;45279;-73
2023/10/14 13:41:42;;;;;;;;;2.00;1.33;;;;;;;;6339195;22;45203;-74
2023/10/14 13:44:07;;;;;;;;;1.00;1.00;;;;;;;;6339783;22;46118;-73
2023/10/14 13:46:32;;;;;;;;;1.00;1.00;;;;;;;;6311517;22;45293;-74
2023/10/14 13:48:57;;;;;;;;;0.67;0.67;;;;;;;;6340401;22;45220;-73
2023/10/14 13:51:24;;;;;;;;;1.00;1.00;;;;;;;;6339454;22;45238;-74
2023/10/14 13:53:49;;;;;;;;;1.67;1.33;;;;;;;;6340095;22;46146;-72
2023/10/14 13:56:15;;;;;;;;;0.67;0.67;;;;;;;;6339845;22;45349;-72
2023/10/14 13:58:40;;;;;;;;;2.67;1.67;;;;;;;;6340314;22;45235;-72
2023/10/14 14:01:09;;;;;;;;;2.00;1.67;;;;;;;;6339038;22;45888;-72
2023/10/14 14:03:38;;;;;;;;;5.67;1.33;;;;;;;;6339763;22;45488;-73
2023/10/14 14:06:07;;;;;;;;;1.67;0.67;;;;;;;;6311300;22;45298;-73
2023/10/14 14:08:33;;;;;;;;;1.67;0.67;;;;;;;;6339783;22;45241;-72
2023/10/14 14:11:03;;;;;;;;;4.33;1.00;;;;;;;;6339118;22;45547;-72
2023/10/14 14:13:29;;;;;;;;;1.00;1.00;;;;;;;;6340120;22;45561;-73
2023/10/14 14:15:54;;;;;;;;;2.67;1.67;;;;;;;;6312670;22;45200;-72
2023/10/14 14:18:20;;;;;;;;;1.00;1.00;;;;;;;;6341819;22;45196;-72
2023/10/14 14:20:47;;;;;;;;;2.67;0.67;;;;;;;;6339523;22;45379;-73
2023/10/14 14:23:13;;;;;;;;;0.67;0.67;;;;;;;;6339893;22;45250;-73
2023/10/14 14:25:39;;;;;;;;;1.00;1.00;;;;;;;;6339727;22;45089;-73
2023/10/14 14:28:05;;;;;;;;;3.67;2.67;;;;;;;;6340113;22;45250;-73
2023/10/14 14:30:30;;;;;;;;;2.00;2.00;;;;;;;;6339729;22;45081;-73
2023/10/14 14:32:56;;;;;;;;;1.67;1.67;;;;;;;;6339327;22;45219;-72
2023/10/14 14:35:30;;;;;;;;;2.33;0.00;;;;;;;;6339463;22;45221;-72
2023/10/14 14:37:56;;;;;;;;;4.00;2.00;;;;;;;;6340138;22;45238;-72
2023/10/14 14:40:25;;;;;;;;;6.00;2.00;;;;;;;;6339523;22;45374;-72
2023/10/14 14:42:51;;;;;;;;;1.67;1.67;;;;;;;;6309723;22;46761;-72
2023/10/14 14:45:22;;;;;;;;;1.00;1.00;;;;;;;;6337804;22;45286;-73
2023/10/14 14:47:48;;;;;;;;;1.00;1.00;;;;;;;;6338516;22;45333;-74
2023/10/14 14:50:16;;;;;;;;;1.00;1.00;;;;;;;;6339684;22;45390;-74
2023/10/14 14:52:44;;;;;;;;;2.33;1.00;;;;;;;;6339135;22;45155;-73
2023/10/14 14:55:14;;;;;;;;;2.00;1.00;;;;;;;;6339561;22;45191;-75
2023/10/14 14:57:39;;;;;;;;;1.00;0.67;;;;;;;;6339723;22;45354;-73
2023/10/14 15:00:08;;;;;;;;;0.00;0.00;;;;;;;;6339561;22;45228;-74
2023/10/14 15:02:36;;;;;;;;;2.00;0.67;;;;;;;;6305951;22;46937;-72
2023/10/14 15:05:04;;;;;;;;;1.00;1.00;;;;;;;;6335479;22;45440;-72
2023/10/14 15:07:29;;;;;;;;;1.00;0.33;;;;;;;;6335458;22;45305;-73
2023/10/14 15:09:55;;;;;;;;;0.33;0.33;;;;;;;;6336065;22;45479;-73
2023/10/14 15:12:20;;;;;;;;;2.00;1.00;;;;;;;;6334001;22;45663;-73
2023/10/14 15:14:45;;;;;;;;;0.33;0.33;;;;;;;;6334702;22;45689;-73
2023/10/14 15:17:11;;;;;;;;;0.00;0.00;;;;;;;;6335578;22;45430;-73
2023/10/14 15:19:37;;;;;;;;;1.00;1.00;;;;;;;;6306922;22;45945;-73
2023/10/14 15:22:06;;;;;;;;;2.00;0.67;;;;;;;;6334805;22;45234;-73
2023/10/14 15:24:31;;;;;;;;;2.00;1.67;;;;;;;;6334923;22;45266;-73
2023/10/14 15:26:56;;;;;;;;;1.00;1.00;;;;;;;;6334860;22;45252;-73
2023/10/14 15:29:21;;;;;;;;;0.00;0.00;;;;;;;;6335452;22;45275;-73
2023/10/14 15:31:46;;;;;;;;;1.00;0.67;;;;;;;;6335460;22;46447;-72
2023/10/14 15:34:12;;;;;;;;;0.00;0.00;;;;;;;;6306660;22;45734;-72
2023/10/14 15:36:37;;;;;;;;;0.00;0.00;;;;;;;;6334663;22;45672;-73
2023/10/14 15:39:05;;;;;;;;;0.00;0.00;;;;;;;;6332933;22;45317;-72
2023/10/14 15:41:31;;;;;;;;;0.00;0.00;;;;;;;;6335665;22;45621;-73
2023/10/14 15:43:56;;;;;;;;;0.00;0.00;;;;;;;;6336101;22;45289;-72
2023/10/14 15:46:25;;;;;;;;;0.67;0.67;;;;;;;;6306791;22;45512;-72
2023/10/14 15:48:51;;;;;;;;;0.00;0.00;;;;;;;;6306783;22;46074;-72
2023/10/14 15:51:18;;;;;;;;;2.00;0.00;;;;;;;;6334875;22;45995;-72
2023/10/14 15:53:45;;;;;;;;;1.00;1.00;;;;;;;;6334541;22;45343;-72
2023/10/14 15:56:14;;;;;;;;;2.67;1.67;;;;;;;;6331817;22;45358;-72
2023/10/14 15:58:39;;;;;;;;;3.67;2.67;;;;;;;;6334268;22;45858;-71
2023/10/14 16:01:07;;;;;;;;;2.00;2.00;;;;;;;;6334557;22;45257;-72
2023/10/14 16:03:32;;;;;;;;;0.00;0.00;;;;;;;;6334136;22;45590;-72
2023/10/14 16:05:58;;;;;;;;;0.67;0.00;;;;;;;;6336296;22;45284;-72
2023/10/14 16:08:24;;;;;;;;;2.33;0.33;;;;;;;;6307197;22;46936;-71
2023/10/14 16:10:50;;;;;;;;;1.00;1.00;;;;;;;;6335480;22;46330;-71
2023/10/14 16:13:15;;;;;;;;;0.00;0.00;;;;;;;;6337031;22;45263;-72
2023/10/14 16:15:40;;;;;;;;;1.00;1.00;;;;;;;;6337189;22;45210;-72
2023/10/14 16:18:07;;;;;;;;;0.33;0.33;;;;;;;;6335409;22;45234;-72
2023/10/14 16:20:33;;;;;;;;;1.33;0.67;;;;;;;;6336057;22;45661;-72
2023/10/14 16:23:03;;;;;;;;;0.00;0.00;;;;;;;;6336362;22;45162;-72
2023/10/14 16:25:28;;;;;;;;;1.00;0.00;;;;;;;;6307945;22;45341;-72
2023/10/14 16:27:53;;;;;;;;;1.00;1.00;;;;;;;;6337969;22;45536;-72
2023/10/14 16:30:20;;;;;;;;;2.00;0.00;;;;;;;;6336345;22;45262;-72
2023/10/14 16:32:52;;;;;;;;;2.33;1.00;;;;;;;;6336876;22;45574;-72
2023/10/14 16:35:18;;;;;;;;;2.00;0.33;;;;;;;;6339328;22;45749;-72
2023/10/14 16:37:46;;;;;;;;;0.67;0.67;;;;;;;;6336851;22;45428;-72
2023/10/14 16:40:23;;;;;;;;;1.00;0.67;;;;;;;;6307520;22;47087;-71
2023/10/14 16:42:52;;;;;;;;;2.00;0.00;;;;;;;;6308316;22;45265;-72
2023/10/14 16:45:19;;;;;;;;;1.33;0.67;;;;;;;;6337077;22;45557;-71
2023/10/14 16:47:44;;;;;;;;;0.00;0.00;;;;;;;;6336877;22;45403;-72
2023/10/14 16:50:13;;;;;;;;;2.00;0.00;;;;;;;;6336398;22;45187;-72
2023/10/14 16:52:41;;;;;;;;;0.00;0.00;;;;;;;;6309315;22;45306;-71
2023/10/14 16:55:11;;;;;;;;;0.33;0.33;;;;;;;;6337670;22;45180;-72
2023/10/14 16:57:36;;;;;;;;;0.00;0.00;;;;;;;;6336876;22;45240;-72
2023/10/14 17:00:02;;;;;;;;;1.00;1.00;;;;;;;;6340281;22;45273;-72
2023/10/14 17:02:27;;;;;;;;;1.67;1.67;;;;;;;;6340099;22;45279;-72
2023/10/14 17:04:54;;;;;;;;;1.00;1.00;;;;;;;;6340730;22;45147;-72
2023/10/14 17:07:20;;;;;;;;;1.00;1.00;;;;;;;;6340211;22;45335;-72
2023/10/14 17:09:46;;;;;;;;;0.00;0.00;;;;;;;;6340323;22;46002;-72
2023/10/14 17:12:11;;;;;;;;;1.33;1.00;;;;;;;;6340189;22;45317;-72
2023/10/14 17:14:38;;;;;;;;;1.67;1.33;;;;;;;;6312746;22;45345;-71
2023/10/14 17:17:06;;;;;;;;;4.33;4.33;;;;;;;;6311840;22;45494;-72
2023/10/14 17:19:31;;;;;;;;;1.00;1.00;;;;;;;;6340278;22;45208;-74
2023/10/14 17:21:56;;;;;;;;;3.00;1.67;;;;;;;;6340304;22;45250;-72
2023/10/14 17:24:22;;;;;;;;;2.00;2.00;;;;;;;;6340583;22;45433;-72
2023/10/14 17:26:47;;;;;;;;;3.00;2.00;;;;;;;;6339820;22;45566;-73
2023/10/14 17:29:12;;;;;;;;;1.67;1.67;;;;;;;;6340695;22;45370;-73
2023/10/14 17:31:37;;;;;;;;;1.00;1.00;;;;;;;;6340586;22;45185;-73
2023/10/14 17:34:03;;;;;;;;;1.00;1.00;;;;;;;;6340719;22;45170;-73
2023/10/14 17:36:29;;;;;;;;;1.67;1.67;;;;;;;;6340141;22;45183;-72
2023/10/14 17:38:54;;;;;;;;;2.00;2.00;;;;;;;;6340465;22;46421;-73
2023/10/14 17:41:20;;;;;;;;;1.67;1.67;;;;;;;;6339705;22;44830;-72
2023/10/14 17:43:47;;;;;;;;;3.00;1.00;;;;;;;;6340780;22;45124;-73
2023/10/14 17:46:19;;;;;;;;;2.00;1.00;;;;;;;;6340239;22;45422;-73
2023/10/14 17:48:45;;;;;;;;;5.00;2.33;;;;;;;;6340169;22;45203;-73
2023/10/14 17:51:10;;;;;;;;;5.67;3.00;;;;;;;;6340012;22;45216;-73
2023/10/14 17:53:40;;;;;;;;;4.00;3.33;;;;;;;;6340364;22;45147;-72
2023/10/14 17:56:09;;;;;;;;;30.25;24.50;;;;;;;;6339478;22;45324;-73
2023/10/14 17:58:35;;;;;;;;;48.50;41.00;;;;;;;;6340244;22;46268;-73
2023/10/14 18:01:00;;;;;;;;;26.25;23.75;;;;;;;;6340135;22;45322;-73
2023/10/14 18:03:26;;;;;;;;;11.00;11.00;;;;;;;;6312266;22;45237;-72
2023/10/14 18:05:51;;;;;;;;;57.00;44.75;;;;;;;;6312065;22;45937;-71
2023/10/14 18:08:19;;;;;;;;;20.50;19.75;;;;;;;;6340207;22;45396;-71
2023/10/14 18:10:44;;;;;;;;;8.00;8.00;;;;;;;;6339633;22;45218;-71
2023/10/14 18:13:11;;;;;;;;;12.50;11.75;;;;;;;;6340513;22;45279;-71
2023/10/14 18:15:39;;;;;;;;;10.75;10.50;;;;;;;;6340317;22;45192;-71
2023/10/14 18:18:05;;;;;;;;;38.75;33.75;;;;;;;;6340319;22;45163;-72
2023/10/14 18:20:32;;;;;;;;;9.50;6.50;;;;;;;;6311505;22;45417;-71
2023/10/14 18:23:03;;;;;;;;;9.33;9.33;;;;;;;;6340127;22;45148;-71
2023/10/14 18:25:29;;;;;;;;;19.25;17.00;;;;;;;;6311131;22;46063;-72
2023/10/14 18:27:55;;;;;;;;;17.25;15.25;;;;;;;;6340494;22;45681;-72
2023/10/14 18:30:21;;;;;;;;;3.67;2.33;;;;;;;;6311973;22;45953;-72
2023/10/14 18:32:50;;;;;;;;;5.00;3.67;;;;;;;;6340126;22;45249;-72
2023/10/14 18:35:16;;;;;;;;;8.67;8.00;;;;;;;;6311730;22;45417;-72
2023/10/14 18:37:44;;;;;;;;;14.33;9.00;;;;;;;;6339907;22;46000;-73
2023/10/14 18:40:13;;;;;;;;;6.33;5.00;;;;;;;;6339908;22;45210;-72
2023/10/14 18:42:44;;;;;;;;;14.25;14.25;;;;;;;;6339318;22;45266;-71
2023/10/14 18:45:14;;;;;;;;;7.67;7.00;;;;;;;;6340519;22;45350;-72
2023/10/14 18:47:41;;;;;;;;;14.00;12.75;;;;;;;;6312322;22;48241;-72
2023/10/14 18:50:06;;;;;;;;;4.67;4.67;;;;;;;;6341217;22;45267;-72
2023/10/14 18:52:32;;;;;;;;;3.00;3.00;;;;;;;;6339826;22;45334;-72
2023/10/14 18:54:57;;;;;;;;;10.00;9.33;;;;;;;;6340296;22;45524;-72
2023/10/14 18:57:22;;;;;;;;;13.33;12.67;;;;;;;;6339221;22;46100;-72
2023/10/14 18:59:47;;;;;;;;;10.00;9.00;;;;;;;;6340423;22;45320;-73
2023/10/14 19:02:17;;;;;;;;;12.00;9.00;;;;;;;;6311434;22;45242;-72
2023/10/14 19:04:42;;;;;;;;;10.00;8.00;;;;;;;;6339967;22;45346;-72
2023/10/14 19:07:08;;;;;;;;;7.00;6.00;;;;;;;;6339502;22;45244;-73
2023/10/14 19:09:35;;;;;;;;;9.67;9.67;;;;;;;;6340141;22;45415;-73
2023/10/14 19:12:00;;;;;;;;;8.00;7.00;;;;;;;;6339985;22;45270;-72
2023/10/14 19:14:28;;;;;;;;;16.00;16.00;;;;;;;;6340048;22;45162;-73
2023/10/14 19:16:53;;;;;;;;;11.00;10.75;;;;;;;;6339523;22;46117;-72
2023/10/14 19:19:18;;;;;;;;;20.75;20.50;;;;;;;;6340049;22;45202;-73
2023/10/14 19:21:43;;;;;;;;;13.25;13.25;;;;;;;;6339631;22;45492;-72
2023/10/14 19:24:08;;;;;;;;;13.25;13.00;;;;;;;;6340044;22;45187;-73
2023/10/14 19:26:33;;;;;;;;;11.75;10.50;;;;;;;;6339095;22;46090;-72
2023/10/14 19:28:59;;;;;;;;;16.75;14.00;;;;;;;;6340396;22;45294;-73
2023/10/14 19:31:24;;;;;;;;;20.50;18.50;;;;;;;;6340001;22;45330;-73
2023/10/14 19:33:50;;;;;;;;;15.75;15.00;;;;;;;;6312115;22;45278;-73
2023/10/14 19:36:16;;;;;;;;;58.25;46.75;;;;;;;;6340741;22;46183;-72
2023/10/14 19:38:41;;;;;;;;;44.00;34.25;;;;;;;;6339890;22;45172;-73
2023/10/14 19:41:08;;;;;;;;;16.50;14.00;;;;;;;;6340233;22;45279;-73
2023/10/14 19:43:33;;;;;;;;;59.75;46.25;;;;;;;;6341145;22;45346;-73
2023/10/14 19:46:04;;;;;;;;;45.25;37.00;;;;;;;;6340669;22;45299;-73
2023/10/14 19:48:30;;;;;;;;;30.75;29.50;;;;;;;;6341021;22;45172;-72
2023/10/14 19:50:55;;;;;;;;;40.00;34.00;;;;;;;;6340528;22;45240;-72
2023/10/14 19:53:22;;;;;;;;;12.00;10.00;;;;;;;;6312320;22;45920;-73
2023/10/14 19:55:48;;;;;;;;;34.25;30.00;;;;;;;;6340309;22;46263;-72
2023/10/14 19:58:13;;;;;;;;;19.25;16.50;;;;;;;;6341002;22;45495;-73
2023/10/14 20:00:40;;;;;;;;;20.75;16.75;;;;;;;;6341112;22;45196;-73
2023/10/14 20:03:12;;;;;;;;;5.00;5.00;;;;;;;;6341311;22;45282;-73
2023/10/14 20:05:46;;;;;;;;;10.33;8.33;;;;;;;;6340773;22;45338;-73
2023/10/14 20:08:12;;;;;;;;;5.33;5.33;;;;;;;;6341080;22;45172;-73
2023/10/14 20:10:39;;;;;;;;;29.50;22.50;;;;;;;;6340592;22;45424;-72
2023/10/14 20:13:05;;;;;;;;;18.00;16.25;;;;;;;;6340167;22;45264;-72
2023/10/14 20:15:31;;;;;;;;;22.75;21.00;;;;;;;;6340447;22;45293;-73
2023/10/14 20:17:56;;;;;;;;;5.33;4.00;;;;;;;;6341399;22;45227;-73
2023/10/14 20:20:21;;;;;;;;;39.75;34.75;;;;;;;;6343093;22;45240;-72
2023/10/14 20:22:47;;;;;;;;;24.75;23.25;;;;;;;;6312728;22;46298;-72
2023/10/14 20:25:19;;;;;;;;;18.75;17.25;;;;;;;;6340549;22;46403;-73
2023/10/14 20:27:54;;;;;;;;;35.75;32.00;;;;;;;;6340735;22;45298;-72
2023/10/14 20:30:20;;;;;;;;;7.00;6.00;;;;;;;;6341138;22;45404;-73
2023/10/14 20:32:51;;;;;;;;;9.00;9.00;;;;;;;;6340627;22;45274;-74
2023/10/14 20:35:22;;;;;;;;;5.33;5.00;;;;;;;;6340753;22;45105;-72
2023/10/14 20:37:50;;;;;;;;;3.67;3.67;;;;;;;;6340924;22;45310;-73
2023/10/14 20:40:16;;;;;;;;;9.67;8.00;;;;;;;;6341063;22;45212;-73
2023/10/14 20:42:51;;;;;;;;;19.00;18.25;;;;;;;;6340061;22;45375;-73
2023/10/14 20:45:22;;;;;;;;;23.25;18.75;;;;;;;;6340794;22;45307;-73
2023/10/14 20:47:48;;;;;;;;;8.33;8.00;;;;;;;;6340407;22;45302;-72
2023/10/14 20:50:17;;;;;;;;;5.67;5.00;;;;;;;;6340572;22;45238;-72
2023/10/14 20:52:44;;;;;;;;;3.00;3.00;;;;;;;;6340109;22;45180;-73
2023/10/14 20:55:09;;;;;;;;;7.00;7.00;;;;;;;;6340529;22;45235;-73
2023/10/14 20:57:34;;;;;;;;;7.67;5.67;;;;;;;;6339897;22;45270;-73
2023/10/14 21:00:00;;;;;;;;;7.00;5.50;;;;;;;;6341361;22;45258;-74
2023/10/14 21:02:25;;;;;;;;;8.00;5.00;;;;;;;;6340393;22;45326;-73
2023/10/14 21:04:50;;;;;;;;;4.33;3.00;;;;;;;;6340966;22;45506;-74
2023/10/14 21:07:19;;;;;;;;;4.67;3.00;;;;;;;;6340531;22;45274;-72
2023/10/14 21:09:44;;;;;;;;;5.00;2.33;;;;;;;;6312683;22;45245;-72
2023/10/14 21:12:09;;;;;;;;;1.25;1.25;;;;;;;;6339523;22;45406;-72
2023/10/14 21:14:34;;;;;;;;;2.67;2.00;;;;;;;;6312611;22;46883;-73
2023/10/14 21:17:00;;;;;;;;;2.33;2.33;;;;;;;;6340740;22;45298;-72
2023/10/14 21:19:25;;;;;;;;;4.25;4.25;;;;;;;;6340775;22;45077;-73